sensor_id;sensor_type;location;lat;lon;timestamp;pressure;altitude;pressure_sealevel;temperature;humidity
59194;BME280;44967;48.598;15.650;2023-02-18T00:01:21;98541.03;;;12.08;63.07
59194;BME280;44967;48.598;15.650;2023-02-18T00:03:47;98533.06;;;12.08;63.32
59194;BME280;44967;48.598;15.650;2023-02-18T00:06:22;98541.88;;;12.08;63.52
59194;BME280;44967;48.598;15.650;2023-02-18T00:08:49;98528.16;;;12.22;62.52
59194;BME280;44967;48.598;15.650;2023-02-18T00:11:16;98545.66;;;12.27;62.61
59194;BME280;44967;48.598;15.650;2023-02-18T00:13:42;98549.19;;;12.28;62.74
59194;BME280;44967;48.598;15.650;2023-02-18T00:16:10;98543.34;;;12.17;62.72
59194;BME280;44967;48.598;15.650;2023-02-18T00:18:37;98547.69;;;12.19;62.85
59194;BME280;44967;48.598;15.650;2023-02-18T00:21:07;98562.00;;;12.14;63.44
59194;BME280;44967;48.598;15.650;2023-02-18T00:23:33;98557.72;;;12.10;63.31
59194;BME280;44967;48.598;15.650;2023-02-18T00:26:03;98558.16;;;12.24;62.85
59194;BME280;44967;48.598;15.650;2023-02-18T00:28:29;98557.59;;;12.13;63.19
59194;BME280;44967;48.598;15.650;2023-02-18T00:30:55;98562.00;;;12.14;63.44
59194;BME280;44967;48.598;15.650;2023-02-18T00:33:21;98556.66;;;12.15;63.68
59194;BME280;44967;48.598;15.650;2023-02-18T00:35:47;98554.88;;;12.16;63.45
59194;BME280;44967;48.598;15.650;2023-02-18T00:38:13;98575.09;;;12.18;63.45
59194;BME280;44967;48.598;15.650;2023-02-18T00:40:39;98568.28;;;12.11;64.04
59194;BME280;44967;48.598;15.650;2023-02-18T00:43:06;98574.31;;;12.16;63.67
59194;BME280;44967;48.598;15.650;2023-02-18T00:45:31;98565.38;;;12.19;63.45
59194;BME280;44967;48.598;15.650;2023-02-18T00:47:57;98567.13;;;12.20;63.65
59194;BME280;44967;48.598;15.650;2023-02-18T00:50:22;98558.47;;;12.13;64.39
59194;BME280;44967;48.598;15.650;2023-02-18T00:52:48;98564.59;;;12.15;64.04
59194;BME280;44967;48.598;15.650;2023-02-18T00:55:14;98567.53;;;12.06;64.27
59194;BME280;44967;48.598;15.650;2023-02-18T00:57:39;98559.31;;;12.15;64.27
59194;BME280;44967;48.598;15.650;2023-02-18T01:00:06;98563.69;;;12.16;63.70
59194;BME280;44967;48.598;15.650;2023-02-18T01:02:32;98565.41;;;12.17;63.90
59194;BME280;44967;48.598;15.650;2023-02-18T01:04:58;98562.00;;;12.14;63.88
59194;BME280;44967;48.598;15.650;2023-02-18T01:07:24;98547.81;;;12.16;63.71
59194;BME280;44967;48.598;15.650;2023-02-18T01:09:50;98558.59;;;12.10;64.16
59194;BME280;44967;48.598;15.650;2023-02-18T01:12:15;98540.25;;;12.04;64.67
59194;BME280;44967;48.598;15.650;2023-02-18T01:14:41;98549.72;;;12.11;63.72
59194;BME280;44967;48.598;15.650;2023-02-18T01:17:07;98548.28;;;12.01;64.13
59194;BME280;44967;48.598;15.650;2023-02-18T01:19:32;98541.41;;;11.96;64.24
59194;BME280;44967;48.598;15.650;2023-02-18T01:21:58;98533.50;;;11.94;64.74
59194;BME280;44967;48.598;15.650;2023-02-18T01:24:23;98538.91;;;11.91;64.66
59194;BME280;44967;48.598;15.650;2023-02-18T01:26:49;98530.22;;;11.86;65.00
59194;BME280;44967;48.598;15.650;2023-02-18T01:29:15;98543.28;;;11.92;64.77
59194;BME280;44967;48.598;15.650;2023-02-18T01:31:40;98531.06;;;11.88;65.00
59194;BME280;44967;48.598;15.650;2023-02-18T01:34:06;98527.56;;;11.88;64.66
59194;BME280;44967;48.598;15.650;2023-02-18T01:36:31;98516.97;;;11.88;64.65
59194;BME280;44967;48.598;15.650;2023-02-18T01:38:57;98518.94;;;11.81;65.16
59194;BME280;44967;48.598;15.650;2023-02-18T01:41:22;98522.44;;;11.81;64.90
59194;BME280;44967;48.598;15.650;2023-02-18T01:43:48;98509.44;;;11.74;65.33
59194;BME280;44967;48.598;15.650;2023-02-18T01:46:33;98514.72;;;11.74;65.54
59194;BME280;44967;48.598;15.650;2023-02-18T01:48:59;98507.63;;;11.76;65.51
59194;BME280;44967;48.598;15.650;2023-02-18T01:51:38;98506.00;;;11.72;65.74
59194;BME280;44967;48.598;15.650;2023-02-18T01:54:08;98510.50;;;11.67;65.88
59194;BME280;44967;48.598;15.650;2023-02-18T01:56:49;98513.28;;;11.64;65.99
59194;BME280;44967;48.598;15.650;2023-02-18T01:59:23;98504.50;;;11.62;66.04
59194;BME280;44967;48.598;15.650;2023-02-18T02:01:50;98513.44;;;11.58;66.51
59194;BME280;44967;48.598;15.650;2023-02-18T02:04:16;98501.94;;;11.59;66.34
59194;BME280;44967;48.598;15.650;2023-02-18T02:06:42;98503.72;;;11.58;66.00
59194;BME280;44967;48.598;15.650;2023-02-18T02:09:12;98497.56;;;11.58;66.46
59194;BME280;44967;48.598;15.650;2023-02-18T02:17:44;98496.75;;;11.56;66.93
59194;BME280;44967;48.598;15.650;2023-02-18T02:31:33;98502.09;;;11.54;66.10
59194;BME280;44967;48.598;15.650;2023-02-18T02:42:44;98500.50;;;11.49;66.35
59194;BME280;44967;48.598;15.650;2023-02-18T02:50:34;98502.41;;;11.45;66.32
59194;BME280;44967;48.598;15.650;2023-02-18T02:53:06;98494.25;;;11.51;66.15
59194;BME280;44967;48.598;15.650;2023-02-18T02:55:35;98495.13;;;11.52;66.11
59194;BME280;44967;48.598;15.650;2023-02-18T02:58:01;98500.31;;;11.55;65.92
59194;BME280;44967;48.598;15.650;2023-02-18T03:03:29;98490.16;;;11.41;66.46
59194;BME280;44967;48.598;15.650;2023-02-18T03:11:14;98497.75;;;11.24;67.25
59194;BME280;44967;48.598;15.650;2023-02-18T03:13:56;98506.34;;;11.30;66.89
59194;BME280;44967;48.598;15.650;2023-02-18T03:24:11;98509.97;;;11.28;67.29
59194;BME280;44967;48.598;15.650;2023-02-18T03:26:42;98509.66;;;11.09;67.89
59194;BME280;44967;48.598;15.650;2023-02-18T03:29:11;98506.69;;;11.20;67.68
59194;BME280;44967;48.598;15.650;2023-02-18T03:31:39;98512.97;;;11.16;67.69
59194;BME280;44967;48.598;15.650;2023-02-18T03:34:14;98511.28;;;11.13;68.19
59194;BME280;44967;48.598;15.650;2023-02-18T03:36:40;98517.13;;;11.24;67.84
59194;BME280;44967;48.598;15.650;2023-02-18T03:39:10;98516.22;;;11.25;67.75
59194;BME280;44967;48.598;15.650;2023-02-18T03:41:39;98516.25;;;11.24;nan
59194;BME280;44967;48.598;15.650;2023-02-18T03:44:06;98523.44;;;11.19;67.89
59194;BME280;44967;48.598;15.650;2023-02-18T03:46:33;98518.06;;;11.22;67.98
59194;BME280;44967;48.598;15.650;2023-02-18T03:49:00;98518.91;;;11.24;67.74
59194;BME280;44967;48.598;15.650;2023-02-18T03:51:25;98506.69;;;11.20;68.14
59194;BME280;44967;48.598;15.650;2023-02-18T03:53:51;98523.88;;;11.34;67.23
59194;BME280;44967;48.598;15.650;2023-02-18T03:56:19;98517.94;;;11.26;68.20
59194;BME280;44967;48.598;15.650;2023-02-18T03:58:45;98534.50;;;11.33;67.69
59194;BME280;44967;48.598;15.650;2023-02-18T04:01:11;98519.28;;;11.41;67.01
59194;BME280;44967;48.598;15.650;2023-02-18T04:03:37;98527.25;;;11.40;67.29
59194;BME280;44967;48.598;15.650;2023-02-18T04:06:03;98516.69;;;11.38;67.34
59194;BME280;44967;48.598;15.650;2023-02-18T04:08:29;98531.16;;;11.26;67.75
59194;BME280;44967;48.598;15.650;2023-02-18T04:10:55;98531.13;;;11.28;67.30
59194;BME280;44967;48.598;15.650;2023-02-18T04:13:21;98533.63;;;11.32;67.20
59194;BME280;44967;48.598;15.650;2023-02-18T04:15:50;98526.56;;;11.33;67.26
59194;BME280;44967;48.598;15.650;2023-02-18T04:18:16;98528.25;;;11.35;67.19
59194;BME280;44967;48.598;15.650;2023-02-18T04:20:42;98527.78;;;11.51;66.40
59194;BME280;44967;48.598;15.650;2023-02-18T04:23:08;98515.75;;;11.41;66.52
59194;BME280;44967;48.598;15.650;2023-02-18T04:25:34;98522.78;;;11.42;66.68
59194;BME280;44967;48.598;15.650;2023-02-18T04:27:59;98532.81;;;11.30;67.13
59194;BME280;44967;48.598;15.650;2023-02-18T04:30:25;98530.09;;;11.33;66.84
59194;BME280;44967;48.598;15.650;2023-02-18T04:32:51;98526.22;;;11.45;66.22
59194;BME280;44967;48.598;15.650;2023-02-18T04:35:17;98534.91;;;11.49;65.67
59194;BME280;44967;48.598;15.650;2023-02-18T04:37:43;98533.06;;;11.51;66.05
59194;BME280;44967;48.598;15.650;2023-02-18T04:40:09;98525.44;;;11.42;66.01
59194;BME280;44967;48.598;15.650;2023-02-18T04:42:35;98536.03;;;11.42;66.40
59194;BME280;44967;48.598;15.650;2023-02-18T04:45:00;98535.31;;;11.35;66.37
59194;BME280;44967;48.598;15.650;2023-02-18T04:47:26;98537.81;;;11.41;66.29
59194;BME280;44967;48.598;15.650;2023-02-18T04:49:52;98537.19;;;11.31;66.56
59194;BME280;44967;48.598;15.650;2023-02-18T04:52:18;98542.69;;;11.25;66.89
59194;BME280;44967;48.598;15.650;2023-02-18T04:54:44;98535.44;;;11.30;66.73
59194;BME280;44967;48.598;15.650;2023-02-18T04:57:09;98528.09;;;11.42;65.97
59194;BME280;44967;48.598;15.650;2023-02-18T04:59:35;98538.56;;;11.45;66.12
59194;BME280;44967;48.598;15.650;2023-02-18T05:02:01;98542.38;;;11.34;66.46
59194;BME280;44967;48.598;15.650;2023-02-18T05:04:27;98541.56;;;11.32;66.57
59194;BME280;44967;48.598;15.650;2023-02-18T05:06:53;98549.50;;;11.32;66.54
59194;BME280;44967;48.598;15.650;2023-02-18T05:09:19;98538.03;;;11.33;66.51
59194;BME280;44967;48.598;15.650;2023-02-18T05:11:44;98537.84;;;11.40;65.88
59194;BME280;44967;48.598;15.650;2023-02-18T05:14:12;98538.94;;;11.32;65.91
59194;BME280;44967;48.598;15.650;2023-02-18T05:16:38;98544.00;;;11.40;65.94
59194;BME280;44967;48.598;15.650;2023-02-18T05:19:04;98550.16;;;11.41;65.72
59194;BME280;44967;48.598;15.650;2023-02-18T05:21:30;98545.78;;;11.40;66.18
59194;BME280;44967;48.598;15.650;2023-02-18T05:23:56;98537.72;;;11.43;65.95
59194;BME280;44967;48.598;15.650;2023-02-18T05:26:21;98554.53;;;11.42;66.08
59194;BME280;44967;48.598;15.650;2023-02-18T05:28:47;98542.78;;;11.50;65.64
59194;BME280;44967;48.598;15.650;2023-02-18T05:31:13;98540.22;;;11.49;65.82
59194;BME280;44967;48.598;15.650;2023-02-18T05:33:38;98538.66;;;11.42;65.72
59194;BME280;44967;48.598;15.650;2023-02-18T05:36:04;98547.59;;;11.38;65.68
59194;BME280;44967;48.598;15.650;2023-02-18T05:38:30;98542.38;;;11.34;66.30
59194;BME280;44967;48.598;15.650;2023-02-18T05:40:55;98531.53;;;11.44;65.88
59194;BME280;44967;48.598;15.650;2023-02-18T05:43:21;98538.72;;;11.39;66.23
59194;BME280;44967;48.598;15.650;2023-02-18T05:45:47;98543.97;;;11.42;66.06
59194;BME280;44967;48.598;15.650;2023-02-18T05:48:12;98549.16;;;11.45;65.44
59194;BME280;44967;48.598;15.650;2023-02-18T05:50:38;98558.81;;;11.46;65.44
59194;BME280;44967;48.598;15.650;2023-02-18T05:53:03;98551.06;;;11.40;65.26
59194;BME280;44967;48.598;15.650;2023-02-18T05:55:29;98550.88;;;11.46;65.73
59194;BME280;44967;48.598;15.650;2023-02-18T05:57:55;98560.50;;;11.48;65.11
59194;BME280;44967;48.598;15.650;2023-02-18T06:00:21;98564.84;;;11.51;65.47
59194;BME280;44967;48.598;15.650;2023-02-18T06:02:46;98552.31;;;11.57;64.92
59194;BME280;44967;48.598;15.650;2023-02-18T06:05:12;98561.28;;;11.52;65.29
59194;BME280;44967;48.598;15.650;2023-02-18T06:07:38;98563.09;;;11.50;65.46
59194;BME280;44967;48.598;15.650;2023-02-18T06:10:04;98565.13;;;11.42;65.79
59194;BME280;44967;48.598;15.650;2023-02-18T06:12:30;98566.69;;;11.49;65.75
59194;BME280;44967;48.598;15.650;2023-02-18T06:14:56;98560.50;;;11.48;65.51
59194;BME280;44967;48.598;15.650;2023-02-18T06:17:21;98560.38;;;11.53;65.35
59194;BME280;44967;48.598;15.650;2023-02-18T06:19:47;98556.91;;;11.51;65.53
59194;BME280;44967;48.598;15.650;2023-02-18T06:22:14;98556.09;;;11.49;65.91
59194;BME280;44967;48.598;15.650;2023-02-18T06:24:39;98562.69;;;11.34;66.07
59194;BME280;44967;48.598;15.650;2023-02-18T06:27:05;98557.38;;;11.34;66.43
59194;BME280;44967;48.598;15.650;2023-02-18T06:29:31;98552.66;;;11.45;65.91
59194;BME280;44967;48.598;15.650;2023-02-18T06:31:57;98551.66;;;11.49;65.39
59194;BME280;44967;48.598;15.650;2023-02-18T06:34:24;98552.59;;;11.47;65.44
59194;BME280;44967;48.598;15.650;2023-02-18T06:36:49;98571.88;;;11.52;65.35
59194;BME280;44967;48.598;15.650;2023-02-18T06:39:15;98552.59;;;11.47;65.92
59194;BME280;44967;48.598;15.650;2023-02-18T06:41:41;98556.03;;;11.50;65.80
59194;BME280;44967;48.598;15.650;2023-02-18T06:44:06;98558.78;;;11.47;65.81
59194;BME280;44967;48.598;15.650;2023-02-18T06:46:32;98556.13;;;11.47;65.99
59194;BME280;44967;48.598;15.650;2023-02-18T06:48:58;98566.22;;;11.64;65.28
59194;BME280;44967;48.598;15.650;2023-02-18T06:51:24;98562.66;;;11.65;65.53
59194;BME280;44967;48.598;15.650;2023-02-18T06:53:50;98570.88;;;11.56;65.72
59194;BME280;44967;48.598;15.650;2023-02-18T06:56:15;98560.69;;;11.73;64.73
59194;BME280;44967;48.598;15.650;2023-02-18T06:58:41;98560.47;;;11.79;64.80
59194;BME280;44967;48.598;15.650;2023-02-18T07:01:07;98560.34;;;11.84;64.16
59194;BME280;44967;48.598;15.650;2023-02-18T07:03:33;98552.72;;;11.73;64.86
59194;BME280;44967;48.598;15.650;2023-02-18T07:05:58;98548.84;;;11.85;64.93
59194;BME280;44967;48.598;15.650;2023-02-18T07:08:24;98548.06;;;11.81;64.96
59194;BME280;44967;48.598;15.650;2023-02-18T07:10:50;98548.09;;;11.79;64.67
59194;BME280;44967;48.598;15.650;2023-02-18T07:13:15;98535.91;;;11.74;65.23
59194;BME280;44967;48.598;15.650;2023-02-18T07:15:41;98544.59;;;11.79;64.70
59194;BME280;44967;48.598;15.650;2023-02-18T07:18:06;98537.47;;;11.81;64.78
59194;BME280;44967;48.598;15.650;2023-02-18T07:20:32;98550.72;;;11.81;64.39
59194;BME280;44967;48.598;15.650;2023-02-18T07:22:58;98548.00;;;11.82;64.77
59194;BME280;44967;48.598;15.650;2023-02-18T07:25:24;98551.31;;;11.89;64.28
59194;BME280;44967;48.598;15.650;2023-02-18T07:27:50;98551.28;;;11.91;64.31
59194;BME280;44967;48.598;15.650;2023-02-18T07:30:18;98548.59;;;11.92;64.22
59194;BME280;44967;48.598;15.650;2023-02-18T07:32:43;98544.72;;;12.02;64.13
59194;BME280;44967;48.598;15.650;2023-02-18T07:35:12;98559.75;;;12.02;63.54
59194;BME280;44967;48.598;15.650;2023-02-18T07:37:37;98564.09;;;12.04;63.88
59194;BME280;44967;48.598;15.650;2023-02-18T07:40:03;98553.41;;;12.07;63.66
59194;BME280;44967;48.598;15.650;2023-02-18T07:42:29;98551.41;;;12.14;63.75
59194;BME280;44967;48.598;15.650;2023-02-18T07:44:55;98549.72;;;12.11;63.42
59194;BME280;44967;48.598;15.650;2023-02-18T07:47:20;98548.81;;;12.12;63.16
59194;BME280;44967;48.598;15.650;2023-02-18T07:49:46;98546.97;;;12.14;63.02
59194;BME280;44967;48.598;15.650;2023-02-18T07:52:13;98551.38;;;12.15;63.21
59194;BME280;44967;48.598;15.650;2023-02-18T07:54:39;98536.41;;;12.13;63.27
59194;BME280;44967;48.598;15.650;2023-02-18T07:57:05;98536.47;;;12.11;62.83
59194;BME280;44967;48.598;15.650;2023-02-18T07:59:30;98521.69;;;12.31;62.63
59194;BME280;44967;48.598;15.650;2023-02-18T08:01:56;98534.22;;;12.25;62.22
59194;BME280;44967;48.598;15.650;2023-02-18T08:04:21;98542.16;;;12.27;62.42
59194;BME280;44967;48.598;15.650;2023-02-18T08:06:48;98539.75;;;12.19;62.68
59194;BME280;44967;48.598;15.650;2023-02-18T08:09:14;98527.13;;;12.27;62.10
59194;BME280;44967;48.598;15.650;2023-02-18T08:11:40;98534.22;;;12.25;62.71
59194;BME280;44967;48.598;15.650;2023-02-18T08:14:06;98521.22;;;12.19;62.39
59194;BME280;44967;48.598;15.650;2023-02-18T08:16:31;98528.28;;;12.19;62.51
59194;BME280;44967;48.598;15.650;2023-02-18T08:18:57;98520.78;;;12.32;62.54
59194;BME280;44967;48.598;15.650;2023-02-18T08:21:24;98530.97;;;12.44;61.99
59194;BME280;44967;48.598;15.650;2023-02-18T08:23:50;98525.41;;;12.51;61.53
59194;BME280;44967;48.598;15.650;2023-02-18T08:26:16;98530.28;;;12.63;61.20
59194;BME280;44967;48.598;15.650;2023-02-18T08:28:43;98546.88;;;12.68;61.61
59194;BME280;44967;48.598;15.650;2023-02-18T08:31:21;98517.94;;;12.62;61.47
59194;BME280;44967;48.598;15.650;2023-02-18T08:33:48;98506.28;;;12.68;60.81
59194;BME280;44967;48.598;15.650;2023-02-18T08:36:13;98519.47;;;12.69;60.97
59194;BME280;44967;48.598;15.650;2023-02-18T08:38:40;98506.16;;;12.71;61.42
59194;BME280;44967;48.598;15.650;2023-02-18T08:41:07;98501.28;;;12.84;60.80
59194;BME280;44967;48.598;15.650;2023-02-18T08:43:33;98501.06;;;12.90;61.51
59194;BME280;44967;48.598;15.650;2023-02-18T08:45:59;98504.16;;;13.01;60.76
59194;BME280;44967;48.598;15.650;2023-02-18T08:48:25;98507.22;;;13.15;60.23
59194;BME280;44967;48.598;15.650;2023-02-18T08:50:51;98505.25;;;13.20;59.64
59194;BME280;44967;48.598;15.650;2023-02-18T08:53:17;98502.31;;;13.28;58.95
59194;BME280;44967;48.598;15.650;2023-02-18T08:55:43;98497.56;;;13.12;59.39
59194;BME280;44967;48.598;15.650;2023-02-18T08:58:09;98483.94;;;13.23;59.35
59194;BME280;44967;48.598;15.650;2023-02-18T09:00:35;98490.44;;;13.14;59.10
59194;BME280;44967;48.598;15.650;2023-02-18T09:03:01;98488.25;;;13.26;59.23
59194;BME280;44967;48.598;15.650;2023-02-18T09:05:27;98485.00;;;13.41;58.86
59194;BME280;44967;48.598;15.650;2023-02-18T09:07:53;98493.28;;;13.32;59.31
59194;BME280;44967;48.598;15.650;2023-02-18T09:10:19;98489.38;;;13.42;59.31
59194;BME280;44967;48.598;15.650;2023-02-18T09:12:44;98486.72;;;13.42;58.65
59194;BME280;44967;48.598;15.650;2023-02-18T09:15:10;98492.09;;;13.40;58.41
59194;BME280;44967;48.598;15.650;2023-02-18T09:17:35;98488.69;;;13.37;58.19
59194;BME280;44967;48.598;15.650;2023-02-18T09:20:01;98482.13;;;13.47;58.31
59194;BME280;44967;48.598;15.650;2023-02-18T09:22:26;98481.00;;;13.52;58.34
59194;BME280;44967;48.598;15.650;2023-02-18T09:24:52;98495.09;;;13.54;58.87
59194;BME280;44967;48.598;15.650;2023-02-18T09:27:17;98492.34;;;13.56;58.06
59194;BME280;44967;48.598;15.650;2023-02-18T09:29:43;98479.38;;;13.48;57.82
59194;BME280;44967;48.598;15.650;2023-02-18T09:32:09;98486.91;;;13.59;57.98
59194;BME280;44967;48.598;15.650;2023-02-18T09:34:37;98505.09;;;13.69;57.75
59194;BME280;44967;48.598;15.650;2023-02-18T09:37:03;98484.72;;;13.70;57.60
59194;BME280;44967;48.598;15.650;2023-02-18T09:39:29;98485.34;;;13.77;57.05
59194;BME280;44967;48.598;15.650;2023-02-18T09:41:58;98495.09;;;13.76;57.44
59194;BME280;44967;48.598;15.650;2023-02-18T09:49:33;98483.50;;;13.79;58.22
59194;BME280;44967;48.598;15.650;2023-02-18T09:52:11;98493.00;;;13.84;57.43
59194;BME280;44967;48.598;15.650;2023-02-18T09:54:37;98490.34;;;13.84;56.49
59194;BME280;44967;48.598;15.650;2023-02-18T09:57:03;98490.09;;;13.90;56.67
59194;BME280;44967;48.598;15.650;2023-02-18T09:59:30;98478.94;;;13.82;57.46
59194;BME280;44967;48.598;15.650;2023-02-18T10:01:56;98482.69;;;13.98;55.84
59194;BME280;44967;48.598;15.650;2023-02-18T10:04:33;98484.94;;;14.07;56.65
59194;BME280;44967;48.598;15.650;2023-02-18T10:07:01;98492.50;;;14.18;56.04
59194;BME280;44967;48.598;15.650;2023-02-18T10:09:36;98476.22;;;14.26;55.85
59194;BME280;44967;48.598;15.650;2023-02-18T10:12:19;98492.81;;;14.31;55.39
59194;BME280;44967;48.598;15.650;2023-02-18T10:14:57;98486.97;;;14.44;55.65
59194;BME280;44967;48.598;15.650;2023-02-18T10:17:26;98480.00;;;14.42;55.18
59194;BME280;44967;48.598;15.650;2023-02-18T10:19:54;98480.78;;;14.44;54.89
59194;BME280;44967;48.598;15.650;2023-02-18T10:22:23;98473.56;;;14.26;55.15
59194;BME280;44967;48.598;15.650;2023-02-18T10:24:53;98478.59;;;14.32;55.77
59194;BME280;44967;48.598;15.650;2023-02-18T10:27:24;98466.38;;;14.28;55.09
59194;BME280;44967;48.598;15.650;2023-02-18T10:29:50;98476.28;;;14.24;55.52
59194;BME280;44967;48.598;15.650;2023-02-18T10:32:26;98478.94;;;14.24;55.67
59194;BME280;44967;48.598;15.650;2023-02-18T10:40:50;98469.31;;;14.22;55.91
59194;BME280;44967;48.598;15.650;2023-02-18T10:43:48;98463.69;;;14.07;56.06
59194;BME280;44967;48.598;15.650;2023-02-18T10:51:49;98454.47;;;14.38;55.61
59194;BME280;44967;48.598;15.650;2023-02-18T10:54:15;98449.41;;;14.52;55.06
59194;BME280;44967;48.598;15.650;2023-02-18T10:56:46;98433.06;;;14.80;54.20
59194;BME280;44967;48.598;15.650;2023-02-18T11:01:43;98429.81;;;15.12;53.74
59194;BME280;44967;48.598;15.650;2023-02-18T11:04:15;98425.72;;;15.05;53.16
59194;BME280;44967;48.598;15.650;2023-02-18T11:06:47;98422.44;;;15.17;53.34
59194;BME280;44967;48.598;15.650;2023-02-18T11:09:30;98430.22;;;15.22;52.51
59194;BME280;44967;48.598;15.650;2023-02-18T11:12:00;98433.69;;;15.05;53.46
59194;BME280;44967;48.598;15.650;2023-02-18T11:14:39;98422.59;;;14.95;53.31
59194;BME280;44967;48.598;15.650;2023-02-18T11:17:31;98419.31;;;14.70;53.56
59194;BME280;44967;48.598;15.650;2023-02-18T11:19:59;98416.59;;;14.72;54.15
59194;BME280;44967;48.598;15.650;2023-02-18T11:22:31;98406.63;;;14.95;54.35
59194;BME280;44967;48.598;15.650;2023-02-18T11:25:23;98394.75;;;15.02;53.15
59194;BME280;44967;48.598;15.650;2023-02-18T11:27:51;98397.63;;;14.98;52.68
59194;BME280;44967;48.598;15.650;2023-02-18T11:32:56;98396.91;;;14.76;52.80
59194;BME280;44967;48.598;15.650;2023-02-18T11:35:26;98384.19;;;14.82;52.43
59194;BME280;44967;48.598;15.650;2023-02-18T11:37:56;98390.50;;;14.80;53.23
59194;BME280;44967;48.598;15.650;2023-02-18T11:40:27;98381.31;;;14.87;53.51
59194;BME280;44967;48.598;15.650;2023-02-18T11:43:14;98378.84;;;14.82;53.51
59194;BME280;44967;48.598;15.650;2023-02-18T11:45:40;98371.38;;;14.90;53.17
59194;BME280;44967;48.598;15.650;2023-02-18T11:48:22;98377.00;;;14.84;53.27
59194;BME280;44967;48.598;15.650;2023-02-18T11:50:52;98367.94;;;14.88;53.74
59194;BME280;44967;48.598;15.650;2023-02-18T11:53:29;98363.75;;;15.20;53.54
59194;BME280;44967;48.598;15.650;2023-02-18T11:55:58;98361.81;;;15.24;51.93
59194;BME280;44967;48.598;15.650;2023-02-18T11:58:24;98362.59;;;15.26;51.71
59194;BME280;44967;48.598;15.650;2023-02-18T12:00:55;98368.31;;;14.99;52.42
59194;BME280;44967;48.598;15.650;2023-02-18T12:04:12;98347.22;;;14.76;52.12
59194;BME280;44967;48.598;15.650;2023-02-18T12:09:37;98354.22;;;14.40;53.30
59194;BME280;44967;48.598;15.650;2023-02-18T12:12:12;98363.22;;;14.56;53.77
59194;BME280;44967;48.598;15.650;2023-02-18T12:14:40;98353.00;;;14.27;54.04
59194;BME280;44967;48.598;15.650;2023-02-18T12:17:13;98356.59;;;14.26;53.75
59194;BME280;44967;48.598;15.650;2023-02-18T12:20:04;98348.84;;;14.41;53.85
59194;BME280;44967;48.598;15.650;2023-02-18T12:22:49;98329.16;;;14.25;53.24
59194;BME280;44967;48.598;15.650;2023-02-18T12:37:00;98337.53;;;14.16;53.07
59194;BME280;44967;48.598;15.650;2023-02-18T12:48:21;98315.16;;;14.01;53.82
59194;BME280;44967;48.598;15.650;2023-02-18T12:51:01;98306.34;;;14.20;53.40
59194;BME280;44967;48.598;15.650;2023-02-18T12:53:53;98279.63;;;14.23;52.90
59194;BME280;44967;48.598;15.650;2023-02-18T12:58:56;98269.88;;;14.23;52.76
59194;BME280;44967;48.598;15.650;2023-02-18T13:12:53;98258.56;;;14.38;51.02
59194;BME280;44967;48.598;15.650;2023-02-18T13:18:00;98252.06;;;14.45;50.51
59194;BME280;44967;48.598;15.650;2023-02-18T13:20:36;98231.91;;;14.58;49.65
59194;BME280;44967;48.598;15.650;2023-02-18T13:23:05;98230.59;;;14.67;48.65
59194;BME280;44967;48.598;15.650;2023-02-18T13:25:36;98236.56;;;14.72;48.64
59194;BME280;44967;48.598;15.650;2023-02-18T13:28:20;98228.94;;;14.83;48.56
59194;BME280;44967;48.598;15.650;2023-02-18T13:31:01;98203.56;;;14.76;47.43
59194;BME280;44967;48.598;15.650;2023-02-18T13:33:43;98204.44;;;14.77;47.30
59194;BME280;44967;48.598;15.650;2023-02-18T13:39:15;98185.31;;;15.04;46.39
59194;BME280;44967;48.598;15.650;2023-02-18T13:41:45;98192.53;;;15.20;46.74
59194;BME280;44967;48.598;15.650;2023-02-18T13:46:51;98179.66;;;15.10;45.75
59194;BME280;44967;48.598;15.650;2023-02-18T13:49:20;98170.66;;;15.13;46.29
59194;BME280;44967;48.598;15.650;2023-02-18T13:51:49;98166.53;;;15.25;46.44
59194;BME280;44967;48.598;15.650;2023-02-18T13:57:01;98138.47;;;15.35;45.66
59194;BME280;44967;48.598;15.650;2023-02-18T13:59:46;98143.94;;;15.49;45.69
59194;BME280;44967;48.598;15.650;2023-02-18T14:09:56;98143.28;;;15.28;45.51
59194;BME280;44967;48.598;15.650;2023-02-18T14:12:35;98121.13;;;15.28;46.01
59194;BME280;44967;48.598;15.650;2023-02-18T14:17:51;98127.63;;;15.05;45.90
59194;BME280;44967;48.598;15.650;2023-02-18T14:33:34;98111.63;;;14.35;47.45
59194;BME280;44967;48.598;15.650;2023-02-18T14:39:41;98106.25;;;14.18;47.12
59194;BME280;44967;48.598;15.650;2023-02-18T14:41:48;98096.53;;;14.16;47.72
59194;BME280;44967;48.598;15.650;2023-02-18T14:48:04;98082.91;;;14.05;48.33
59194;BME280;44967;48.598;15.650;2023-02-18T14:50:03;98086.94;;;13.95;47.71
59194;BME280;44967;48.598;15.650;2023-02-18T14:52:39;98070.09;;;13.78;48.40
59194;BME280;44967;48.598;15.650;2023-02-18T14:55:22;98053.69;;;13.87;48.83
59194;BME280;44967;48.598;15.650;2023-02-18T14:57:55;98055.56;;;13.85;48.06
59194;BME280;44967;48.598;15.650;2023-02-18T15:00:26;98073.72;;;13.75;49.12
59194;BME280;44967;48.598;15.650;2023-02-18T15:02:57;98062.97;;;13.78;48.32
59194;BME280;44967;48.598;15.650;2023-02-18T15:05:25;98058.09;;;13.69;48.57
59194;BME280;44967;48.598;15.650;2023-02-18T15:08:04;98053.03;;;13.63;48.98
59194;BME280;44967;48.598;15.650;2023-02-18T15:10:45;98073.16;;;13.68;48.47
59194;BME280;44967;48.598;15.650;2023-02-18T15:13:39;98068.03;;;13.64;49.21
59194;BME280;44967;48.598;15.650;2023-02-18T15:16:16;98087.91;;;13.55;49.23
59194;BME280;44967;48.598;15.650;2023-02-18T15:18:51;98081.78;;;13.55;48.92
59194;BME280;44967;48.598;15.650;2023-02-18T15:21:26;98085.59;;;13.48;48.79
59194;BME280;44967;48.598;15.650;2023-02-18T15:23:54;98095.16;;;13.52;49.50
59194;BME280;44967;48.598;15.650;2023-02-18T15:26:21;98078.66;;;13.45;49.04